sensor_id;sensor_type;location;lat;lon;timestamp;P1;durP1;ratioP1;P2;durP2;ratioP2
20449;SDS011;10384;51.940;8.432;2023-03-03T00:02:19;26.47;;;8.93;;
20449;SDS011;10384;51.940;8.432;2023-03-03T00:04:45;22.50;;;8.50;;
20449;SDS011;10384;51.940;8.432;2023-03-03T00:07:11;25.80;;;9.00;;
20449;SDS011;10384;51.940;8.432;2023-03-03T00:09:39;25.23;;;9.30;;
20449;SDS011;10384;51.940;8.432;2023-03-03T00:12:22;23.07;;;8.33;;
20449;SDS011;10384;51.940;8.432;2023-03-03T00:14:48;21.10;;;8.60;;
20449;SDS011;10384;51.940;8.432;2023-03-03T00:17:20;24.10;;;8.80;;
20449;SDS011;10384;51.940;8.432;2023-03-03T00:19:46;23.93;;;8.70;;
20449;SDS011;10384;51.940;8.432;2023-03-03T00:22:15;28.50;;;10.13;;
20449;SDS011;10384;51.940;8.432;2023-03-03T00:24:44;20.17;;;8.43;;
20449;SDS011;10384;51.940;8.432;2023-03-03T00:27:30;24.67;;;8.97;;
20449;SDS011;10384;51.940;8.432;2023-03-03T00:29:57;22.10;;;7.80;;
20449;SDS011;10384;51.940;8.432;2023-03-03T00:34:51;23.83;;;8.27;;
20449;SDS011;10384;51.940;8.432;2023-03-03T00:39:46;20.33;;;8.33;;
20449;SDS011;10384;51.940;8.432;2023-03-03T00:42:16;22.00;;;8.50;;
20449;SDS011;10384;51.940;8.432;2023-03-03T00:44:43;24.40;;;9.03;;
20449;SDS011;10384;51.940;8.432;2023-03-03T00:52:43;21.00;;;7.57;;
20449;SDS011;10384;51.940;8.432;2023-03-03T00:55:09;18.80;;;7.80;;
20449;SDS011;10384;51.940;8.432;2023-03-03T00:57:35;20.53;;;7.47;;
20449;SDS011;10384;51.940;8.432;2023-03-03T01:00:02;20.17;;;7.90;;
20449;SDS011;10384;51.940;8.432;2023-03-03T01:02:28;19.47;;;8.03;;
20449;SDS011;10384;51.940;8.432;2023-03-03T01:04:54;21.33;;;7.97;;
20449;SDS011;10384;51.940;8.432;2023-03-03T01:07:20;19.80;;;7.80;;
20449;SDS011;10384;51.940;8.432;2023-03-03T01:09:46;19.17;;;7.90;;
20449;SDS011;10384;51.940;8.432;2023-03-03T01:12:13;17.70;;;7.47;;
20449;SDS011;10384;51.940;8.432;2023-03-03T01:14:39;19.43;;;7.53;;
20449;SDS011;10384;51.940;8.432;2023-03-03T01:17:05;22.03;;;8.33;;
20449;SDS011;10384;51.940;8.432;2023-03-03T01:19:31;21.53;;;8.47;;
20449;SDS011;10384;51.940;8.432;2023-03-03T01:21:57;29.87;;;11.43;;
20449;SDS011;10384;51.940;8.432;2023-03-03T01:24:23;51.03;;;19.23;;
20449;SDS011;10384;51.940;8.432;2023-03-03T01:26:49;31.20;;;10.80;;
20449;SDS011;10384;51.940;8.432;2023-03-03T01:29:15;27.33;;;9.03;;
20449;SDS011;10384;51.940;8.432;2023-03-03T01:31:41;29.17;;;9.80;;
20449;SDS011;10384;51.940;8.432;2023-03-03T01:34:07;25.50;;;9.67;;
20449;SDS011;10384;51.940;8.432;2023-03-03T01:36:33;23.47;;;8.77;;
20449;SDS011;10384;51.940;8.432;2023-03-03T01:39:01;30.37;;;9.93;;
20449;SDS011;10384;51.940;8.432;2023-03-03T01:41:27;29.37;;;10.43;;
20449;SDS011;10384;51.940;8.432;2023-03-03T01:43:54;29.60;;;9.87;;
20449;SDS011;10384;51.940;8.432;2023-03-03T01:48:50;48.67;;;16.47;;
20449;SDS011;10384;51.940;8.432;2023-03-03T01:53:43;41.13;;;12.63;;
20449;SDS011;10384;51.940;8.432;2023-03-03T01:56:10;36.07;;;11.40;;
20449;SDS011;10384;51.940;8.432;2023-03-03T01:58:44;39.90;;;12.57;;
20449;SDS011;10384;51.940;8.432;2023-03-03T02:01:13;50.23;;;15.60;;
20449;SDS011;10384;51.940;8.432;2023-03-03T02:03:40;57.07;;;17.83;;
20449;SDS011;10384;51.940;8.432;2023-03-03T02:06:09;53.67;;;18.47;;
20449;SDS011;10384;51.940;8.432;2023-03-03T02:11:11;39.07;;;13.13;;
20449;SDS011;10384;51.940;8.432;2023-03-03T02:13:38;49.03;;;14.73;;
20449;SDS011;10384;51.940;8.432;2023-03-03T02:16:04;41.13;;;12.73;;
20449;SDS011;10384;51.940;8.432;2023-03-03T02:18:30;40.47;;;13.87;;
20449;SDS011;10384;51.940;8.432;2023-03-03T02:20:57;40.20;;;11.73;;
20449;SDS011;10384;51.940;8.432;2023-03-03T02:28:27;55.43;;;17.70;;
20449;SDS011;10384;51.940;8.432;2023-03-03T02:30:55;53.73;;;15.63;;
20449;SDS011;10384;51.940;8.432;2023-03-03T02:33:21;47.90;;;13.67;;
20449;SDS011;10384;51.940;8.432;2023-03-03T02:35:47;55.50;;;16.77;;
20449;SDS011;10384;51.940;8.432;2023-03-03T02:38:18;66.90;;;21.43;;
20449;SDS011;10384;51.940;8.432;2023-03-03T02:41:09;44.50;;;14.63;;
20449;SDS011;10384;51.940;8.432;2023-03-03T02:43:36;39.00;;;12.77;;
20449;SDS011;10384;51.940;8.432;2023-03-03T02:46:04;60.10;;;18.27;;
20449;SDS011;10384;51.940;8.432;2023-03-03T02:48:30;63.47;;;20.00;;
20449;SDS011;10384;51.940;8.432;2023-03-03T02:50:56;68.47;;;23.07;;
20449;SDS011;10384;51.940;8.432;2023-03-03T02:53:22;49.63;;;17.43;;
20449;SDS011;10384;51.940;8.432;2023-03-03T02:55:48;40.37;;;12.43;;
20449;SDS011;10384;51.940;8.432;2023-03-03T02:58:14;37.67;;;11.80;;
20449;SDS011;10384;51.940;8.432;2023-03-03T03:00:40;41.33;;;12.57;;
20449;SDS011;10384;51.940;8.432;2023-03-03T03:03:06;40.23;;;10.87;;
20449;SDS011;10384;51.940;8.432;2023-03-03T03:05:32;39.87;;;11.60;;
20449;SDS011;10384;51.940;8.432;2023-03-03T03:07:57;41.53;;;10.70;;
20449;SDS011;10384;51.940;8.432;2023-03-03T03:10:23;34.23;;;10.90;;
20449;SDS011;10384;51.940;8.432;2023-03-03T03:12:49;35.70;;;12.00;;
20449;SDS011;10384;51.940;8.432;2023-03-03T03:15:15;38.70;;;11.60;;
20449;SDS011;10384;51.940;8.432;2023-03-03T03:17:41;43.30;;;12.90;;
20449;SDS011;10384;51.940;8.432;2023-03-03T03:20:07;36.27;;;10.63;;
20449;SDS011;10384;51.940;8.432;2023-03-03T03:22:33;57.20;;;17.60;;
20449;SDS011;10384;51.940;8.432;2023-03-03T03:24:59;41.23;;;13.53;;
20449;SDS011;10384;51.940;8.432;2023-03-03T03:27:25;45.40;;;14.00;;
20449;SDS011;10384;51.940;8.432;2023-03-03T03:29:51;36.30;;;11.97;;
20449;SDS011;10384;51.940;8.432;2023-03-03T03:32:18;39.43;;;12.37;;
20449;SDS011;10384;51.940;8.432;2023-03-03T03:34:44;41.93;;;11.97;;
20449;SDS011;10384;51.940;8.432;2023-03-03T03:37:10;40.80;;;11.37;;
20449;SDS011;10384;51.940;8.432;2023-03-03T03:39:36;38.70;;;11.50;;
20449;SDS011;10384;51.940;8.432;2023-03-03T03:42:02;45.97;;;12.90;;
20449;SDS011;10384;51.940;8.432;2023-03-03T03:44:28;46.83;;;12.07;;
20449;SDS011;10384;51.940;8.432;2023-03-03T03:46:54;55.50;;;18.00;;
20449;SDS011;10384;51.940;8.432;2023-03-03T03:49:20;59.60;;;19.50;;
20449;SDS011;10384;51.940;8.432;2023-03-03T03:51:46;53.17;;;17.43;;
20449;SDS011;10384;51.940;8.432;2023-03-03T03:54:12;145.03;;;37.80;;
20449;SDS011;10384;51.940;8.432;2023-03-03T03:56:38;61.23;;;18.27;;
20449;SDS011;10384;51.940;8.432;2023-03-03T03:59:07;50.20;;;14.30;;
20449;SDS011;10384;51.940;8.432;2023-03-03T04:01:33;45.33;;;13.53;;
20449;SDS011;10384;51.940;8.432;2023-03-03T04:03:59;40.87;;;12.90;;
20449;SDS011;10384;51.940;8.432;2023-03-03T04:06:25;38.73;;;11.83;;
20449;SDS011;10384;51.940;8.432;2023-03-03T04:08:51;45.40;;;14.23;;
20449;SDS011;10384;51.940;8.432;2023-03-03T04:11:17;42.13;;;12.67;;
20449;SDS011;10384;51.940;8.432;2023-03-03T04:13:43;44.90;;;14.20;;
20449;SDS011;10384;51.940;8.432;2023-03-03T04:16:08;52.17;;;18.77;;
20449;SDS011;10384;51.940;8.432;2023-03-03T04:18:34;49.07;;;17.57;;
20449;SDS011;10384;51.940;8.432;2023-03-03T04:21:00;67.63;;;25.67;;
20449;SDS011;10384;51.940;8.432;2023-03-03T04:23:26;52.37;;;15.00;;
20449;SDS011;10384;51.940;8.432;2023-03-03T04:25:52;70.27;;;20.33;;
20449;SDS011;10384;51.940;8.432;2023-03-03T04:28:18;83.20;;;27.60;;
20449;SDS011;10384;51.940;8.432;2023-03-03T04:30:45;44.80;;;17.97;;
20449;SDS011;10384;51.940;8.432;2023-03-03T04:33:11;46.50;;;12.43;;
20449;SDS011;10384;51.940;8.432;2023-03-03T04:35:37;43.10;;;12.37;;
20449;SDS011;10384;51.940;8.432;2023-03-03T04:38:03;49.27;;;12.50;;
20449;SDS011;10384;51.940;8.432;2023-03-03T04:40:29;43.40;;;11.50;;
20449;SDS011;10384;51.940;8.432;2023-03-03T04:42:55;51.07;;;13.67;;
20449;SDS011;10384;51.940;8.432;2023-03-03T04:45:21;42.87;;;11.80;;
20449;SDS011;10384;51.940;8.432;2023-03-03T04:47:47;43.43;;;11.03;;
20449;SDS011;10384;51.940;8.432;2023-03-03T04:50:13;48.70;;;11.17;;
20449;SDS011;10384;51.940;8.432;2023-03-03T04:52:39;43.27;;;12.00;;
20449;SDS011;10384;51.940;8.432;2023-03-03T04:55:05;38.83;;;10.67;;
20449;SDS011;10384;51.940;8.432;2023-03-03T04:57:31;49.27;;;11.00;;
20449;SDS011;10384;51.940;8.432;2023-03-03T04:59:57;41.70;;;11.27;;
20449;SDS011;10384;51.940;8.432;2023-03-03T05:02:23;37.17;;;10.37;;
20449;SDS011;10384;51.940;8.432;2023-03-03T05:04:49;42.43;;;10.90;;
20449;SDS011;10384;51.940;8.432;2023-03-03T05:07:15;43.63;;;11.33;;
20449;SDS011;10384;51.940;8.432;2023-03-03T05:09:43;42.40;;;11.10;;
20449;SDS011;10384;51.940;8.432;2023-03-03T05:12:09;50.57;;;11.37;;
20449;SDS011;10384;51.940;8.432;2023-03-03T05:14:35;38.67;;;10.50;;
20449;SDS011;10384;51.940;8.432;2023-03-03T05:17:02;55.47;;;14.23;;
20449;SDS011;10384;51.940;8.432;2023-03-03T05:19:28;45.60;;;11.80;;
20449;SDS011;10384;51.940;8.432;2023-03-03T05:21:54;40.93;;;9.37;;
20449;SDS011;10384;51.940;8.432;2023-03-03T05:24:21;44.27;;;12.27;;
20449;SDS011;10384;51.940;8.432;2023-03-03T05:26:47;44.93;;;12.50;;
20449;SDS011;10384;51.940;8.432;2023-03-03T05:29:13;42.87;;;9.83;;
20449;SDS011;10384;51.940;8.432;2023-03-03T05:31:39;47.53;;;11.17;;
20449;SDS011;10384;51.940;8.432;2023-03-03T05:34:05;44.40;;;11.47;;
20449;SDS011;10384;51.940;8.432;2023-03-03T05:36:31;49.10;;;12.23;;
20449;SDS011;10384;51.940;8.432;2023-03-03T05:38:57;50.97;;;11.73;;
20449;SDS011;10384;51.940;8.432;2023-03-03T05:41:23;49.33;;;12.33;;
20449;SDS011;10384;51.940;8.432;2023-03-03T05:43:49;48.43;;;11.20;;
20449;SDS011;10384;51.940;8.432;2023-03-03T05:46:15;47.37;;;11.80;;
20449;SDS011;10384;51.940;8.432;2023-03-03T05:48:41;48.70;;;11.73;;
20449;SDS011;10384;51.940;8.432;2023-03-03T05:51:07;50.47;;;13.20;;
20449;SDS011;10384;51.940;8.432;2023-03-03T05:53:33;49.17;;;11.77;;
20449;SDS011;10384;51.940;8.432;2023-03-03T05:55:59;66.20;;;12.87;;
20449;SDS011;10384;51.940;8.432;2023-03-03T05:58:25;49.73;;;12.77;;
20449;SDS011;10384;51.940;8.432;2023-03-03T06:00:51;53.40;;;12.57;;
20449;SDS011;10384;51.940;8.432;2023-03-03T06:03:17;44.63;;;12.23;;
20449;SDS011;10384;51.940;8.432;2023-03-03T06:05:43;58.07;;;13.27;;
20449;SDS011;10384;51.940;8.432;2023-03-03T06:08:09;55.10;;;12.60;;
20449;SDS011;10384;51.940;8.432;2023-03-03T06:10:35;57.10;;;13.33;;
20449;SDS011;10384;51.940;8.432;2023-03-03T06:13:01;55.73;;;12.97;;
20449;SDS011;10384;51.940;8.432;2023-03-03T06:15:27;52.53;;;12.93;;
20449;SDS011;10384;51.940;8.432;2023-03-03T06:17:53;61.33;;;15.57;;
20449;SDS011;10384;51.940;8.432;2023-03-03T06:20:19;46.27;;;12.03;;
20449;SDS011;10384;51.940;8.432;2023-03-03T06:22:45;54.87;;;13.17;;
20449;SDS011;10384;51.940;8.432;2023-03-03T06:25:11;52.17;;;13.00;;
20449;SDS011;10384;51.940;8.432;2023-03-03T06:27:37;53.10;;;12.70;;
20449;SDS011;10384;51.940;8.432;2023-03-03T06:30:03;52.60;;;11.77;;
20449;SDS011;10384;51.940;8.432;2023-03-03T06:32:29;55.30;;;12.13;;
20449;SDS011;10384;51.940;8.432;2023-03-03T06:34:55;60.27;;;13.57;;
20449;SDS011;10384;51.940;8.432;2023-03-03T06:37:21;56.43;;;12.20;;
20449;SDS011;10384;51.940;8.432;2023-03-03T06:39:47;51.63;;;12.03;;
20449;SDS011;10384;51.940;8.432;2023-03-03T06:42:15;53.70;;;12.90;;
20449;SDS011;10384;51.940;8.432;2023-03-03T06:44:42;55.77;;;11.23;;
20449;SDS011;10384;51.940;8.432;2023-03-03T06:47:08;60.90;;;12.47;;
20449;SDS011;10384;51.940;8.432;2023-03-03T06:49:35;61.83;;;13.87;;
20449;SDS011;10384;51.940;8.432;2023-03-03T06:52:01;57.87;;;13.93;;
20449;SDS011;10384;51.940;8.432;2023-03-03T06:54:34;63.70;;;12.43;;
20449;SDS011;10384;51.940;8.432;2023-03-03T06:57:01;54.60;;;12.50;;
20449;SDS011;10384;51.940;8.432;2023-03-03T06:59:29;62.00;;;12.83;;
20449;SDS011;10384;51.940;8.432;2023-03-03T07:01:55;49.43;;;12.43;;
20449;SDS011;10384;51.940;8.432;2023-03-03T07:04:29;56.73;;;12.67;;
20449;SDS011;10384;51.940;8.432;2023-03-03T07:06:56;55.83;;;13.27;;
20449;SDS011;10384;51.940;8.432;2023-03-03T07:09:27;47.53;;;11.87;;
20449;SDS011;10384;51.940;8.432;2023-03-03T07:12:00;50.73;;;11.67;;
20449;SDS011;10384;51.940;8.432;2023-03-03T07:14:27;45.90;;;11.30;;
20449;SDS011;10384;51.940;8.432;2023-03-03T07:16:57;54.10;;;11.80;;
20449;SDS011;10384;51.940;8.432;2023-03-03T07:19:28;55.37;;;13.27;;
20449;SDS011;10384;51.940;8.432;2023-03-03T07:21:55;57.63;;;13.90;;
20449;SDS011;10384;51.940;8.432;2023-03-03T07:24:29;56.37;;;12.53;;
20449;SDS011;10384;51.940;8.432;2023-03-03T07:29:36;42.57;;;9.97;;
20449;SDS011;10384;51.940;8.432;2023-03-03T07:32:07;43.60;;;10.77;;
20449;SDS011;10384;51.940;8.432;2023-03-03T07:34:45;45.67;;;10.73;;
20449;SDS011;10384;51.940;8.432;2023-03-03T07:42:56;44.17;;;10.60;;
20449;SDS011;10384;51.940;8.432;2023-03-03T07:45:29;55.47;;;12.07;;
20449;SDS011;10384;51.940;8.432;2023-03-03T07:48:08;49.23;;;11.73;;
20449;SDS011;10384;51.940;8.432;2023-03-03T07:50:39;46.37;;;11.20;;
20449;SDS011;10384;51.940;8.432;2023-03-03T07:53:11;44.87;;;11.53;;
20449;SDS011;10384;51.940;8.432;2023-03-03T07:55:39;50.63;;;11.27;;
20449;SDS011;10384;51.940;8.432;2023-03-03T08:03:25;50.57;;;12.10;;
20449;SDS011;10384;51.940;8.432;2023-03-03T08:05:51;43.33;;;10.23;;
20449;SDS011;10384;51.940;8.432;2023-03-03T08:08:28;43.83;;;10.97;;
20449;SDS011;10384;51.940;8.432;2023-03-03T08:10:55;42.90;;;10.30;;
20449;SDS011;10384;51.940;8.432;2023-03-03T08:13:23;48.73;;;11.40;;
20449;SDS011;10384;51.940;8.432;2023-03-03T08:15:51;48.43;;;11.10;;
20449;SDS011;10384;51.940;8.432;2023-03-03T08:18:21;50.03;;;10.23;;
20449;SDS011;10384;51.940;8.432;2023-03-03T08:23:14;49.37;;;11.33;;
20449;SDS011;10384;51.940;8.432;2023-03-03T08:25:40;54.17;;;12.43;;
20449;SDS011;10384;51.940;8.432;2023-03-03T08:28:07;56.60;;;12.17;;
20449;SDS011;10384;51.940;8.432;2023-03-03T08:30:33;46.43;;;11.03;;
20449;SDS011;10384;51.940;8.432;2023-03-03T08:32:59;54.77;;;11.20;;
20449;SDS011;10384;51.940;8.432;2023-03-03T08:35:25;51.53;;;12.23;;
20449;SDS011;10384;51.940;8.432;2023-03-03T08:37:52;51.53;;;13.23;;
20449;SDS011;10384;51.940;8.432;2023-03-03T08:40:18;47.67;;;11.50;;
20449;SDS011;10384;51.940;8.432;2023-03-03T08:42:44;50.97;;;12.00;;
20449;SDS011;10384;51.940;8.432;2023-03-03T08:45:10;55.20;;;12.40;;
20449;SDS011;10384;51.940;8.432;2023-03-03T08:47:37;51.60;;;12.90;;
20449;SDS011;10384;51.940;8.432;2023-03-03T08:50:03;47.60;;;12.33;;
20449;SDS011;10384;51.940;8.432;2023-03-03T08:52:29;56.80;;;13.90;;
20449;SDS011;10384;51.940;8.432;2023-03-03T08:54:55;53.40;;;11.80;;
20449;SDS011;10384;51.940;8.432;2023-03-03T08:57:21;55.10;;;12.57;;
20449;SDS011;10384;51.940;8.432;2023-03-03T08:59:47;57.37;;;13.67;;
20449;SDS011;10384;51.940;8.432;2023-03-03T09:02:13;53.37;;;13.00;;
20449;SDS011;10384;51.940;8.432;2023-03-03T09:04:39;51.37;;;12.57;;
20449;SDS011;10384;51.940;8.432;2023-03-03T09:07:05;48.03;;;12.70;;
20449;SDS011;10384;51.940;8.432;2023-03-03T09:09:31;49.20;;;11.57;;
20449;SDS011;10384;51.940;8.432;2023-03-03T09:11:58;49.13;;;12.37;;
20449;SDS011;10384;51.940;8.432;2023-03-03T09:14:26;46.03;;;12.67;;
20449;SDS011;10384;51.940;8.432;2023-03-03T09:16:53;51.07;;;12.57;;
20449;SDS011;10384;51.940;8.432;2023-03-03T09:19:27;44.27;;;11.30;;
20449;SDS011;10384;51.940;8.432;2023-03-03T09:21:55;51.23;;;13.10;;
20449;SDS011;10384;51.940;8.432;2023-03-03T09:24:23;54.03;;;11.83;;
20449;SDS011;10384;51.940;8.432;2023-03-03T09:26:49;46.87;;;12.30;;
20449;SDS011;10384;51.940;8.432;2023-03-03T09:29:26;48.43;;;11.13;;
20449;SDS011;10384;51.940;8.432;2023-03-03T09:34:20;47.87;;;11.97;;
20449;SDS011;10384;51.940;8.432;2023-03-03T09:36:47;46.63;;;11.30;;
20449;SDS011;10384;51.940;8.432;2023-03-03T09:41:58;52.87;;;14.23;;
20449;SDS011;10384;51.940;8.432;2023-03-03T09:49:31;52.57;;;13.67;;
20449;SDS011;10384;51.940;8.432;2023-03-03T09:57:16;53.20;;;14.13;;
20449;SDS011;10384;51.940;8.432;2023-03-03T10:07:38;48.03;;;12.77;;
20449;SDS011;10384;51.940;8.432;2023-03-03T10:15:12;56.37;;;16.23;;
20449;SDS011;10384;51.940;8.432;2023-03-03T10:17:48;45.00;;;11.93;;
20449;SDS011;10384;51.940;8.432;2023-03-03T10:22:51;39.30;;;10.63;;
20449;SDS011;10384;51.940;8.432;2023-03-03T10:30:33;39.07;;;10.73;;
20449;SDS011;10384;51.940;8.432;2023-03-03T10:35:32;38.20;;;10.70;;
20449;SDS011;10384;51.940;8.432;2023-03-03T10:40:42;42.33;;;11.10;;
20449;SDS011;10384;51.940;8.432;2023-03-03T10:43:27;47.20;;;11.50;;
20449;SDS011;10384;51.940;8.432;2023-03-03T10:48:39;45.03;;;10.87;;
20449;SDS011;10384;51.940;8.432;2023-03-03T10:56:37;43.67;;;11.10;;
20449;SDS011;10384;51.940;8.432;2023-03-03T10:59:19;41.33;;;10.20;;
20449;SDS011;10384;51.940;8.432;2023-03-03T11:01:55;46.60;;;11.53;;
20449;SDS011;10384;51.940;8.432;2023-03-03T11:07:01;50.97;;;13.37;;
20449;SDS011;10384;51.940;8.432;2023-03-03T11:14:30;53.53;;;13.53;;
20449;SDS011;10384;51.940;8.432;2023-03-03T11:17:06;56.83;;;15.60;;
20449;SDS011;10384;51.940;8.432;2023-03-03T11:19:47;50.13;;;13.03;;
20449;SDS011;10384;51.940;8.432;2023-03-03T11:27:33;43.97;;;10.50;;
20449;SDS011;10384;51.940;8.432;2023-03-03T11:33:08;39.07;;;10.87;;
20449;SDS011;10384;51.940;8.432;2023-03-03T11:35:44;39.10;;;10.17;;
20449;SDS011;10384;51.940;8.432;2023-03-03T11:40:48;40.67;;;11.50;;
20449;SDS011;10384;51.940;8.432;2023-03-03T11:43:21;40.90;;;11.00;;
20449;SDS011;10384;51.940;8.432;2023-03-03T11:45:51;46.37;;;10.93;;
20449;SDS011;10384;51.940;8.432;2023-03-03T11:50:51;44.33;;;10.27;;
20449;SDS011;10384;51.940;8.432;2023-03-03T11:53:31;35.60;;;9.63;;
20449;SDS011;10384;51.940;8.432;2023-03-03T11:56:23;37.27;;;9.93;;
20449;SDS011;10384;51.940;8.432;2023-03-03T11:58:50;42.30;;;10.63;;
20449;SDS011;10384;51.940;8.432;2023-03-03T12:06:33;46.07;;;10.37;;
20449;SDS011;10384;51.940;8.432;2023-03-03T12:12:32;36.63;;;10.17;;
20449;SDS011;10384;51.940;8.432;2023-03-03T12:14:37;36.30;;;9.47;;
20449;SDS011;10384;51.940;8.432;2023-03-03T12:30:03;36.17;;;9.30;;
20449;SDS011;10384;51.940;8.432;2023-03-03T12:35:16;37.43;;;9.90;;
20449;SDS011;10384;51.940;8.432;2023-03-03T12:37:56;38.23;;;9.67;;
20449;SDS011;10384;51.940;8.432;2023-03-03T12:40:34;36.10;;;9.93;;
20449;SDS011;10384;51.940;8.432;2023-03-03T12:43:12;36.93;;;9.30;;
20449;SDS011;10384;51.940;8.432;2023-03-03T12:50:54;38.10;;;10.37;;
20449;SDS011;10384;51.940;8.432;2023-03-03T12:56:11;35.03;;;9.60;;
20449;SDS011;10384;51.940;8.432;2023-03-03T13:01:28;36.83;;;10.00;;
20449;SDS011;10384;51.940;8.432;2023-03-03T13:06:26;32.87;;;8.57;;
20449;SDS011;10384;51.940;8.432;2023-03-03T13:09:00;35.20;;;10.40;;
20449;SDS011;10384;51.940;8.432;2023-03-03T13:17:01;31.70;;;10.43;;
20449;SDS011;10384;51.940;8.432;2023-03-03T13:19:25;40.00;;;9.97;;
20449;SDS011;10384;51.940;8.432;2023-03-03T13:21:54;35.63;;;10.00;;
20449;SDS011;10384;51.940;8.432;2023-03-03T13:24:26;35.90;;;9.30;;
20449;SDS011;10384;51.940;8.432;2023-03-03T13:26:56;36.03;;;8.83;;
20449;SDS011;10384;51.940;8.432;2023-03-03T13:29:26;33.10;;;8.93;;
20449;SDS011;10384;51.940;8.432;2023-03-03T13:31:58;34.40;;;8.77;;
20449;SDS011;10384;51.940;8.432;2023-03-03T13:34:42;31.57;;;8.07;;
20449;SDS011;10384;51.940;8.432;2023-03-03T13:39:58;33.83;;;7.97;;
20449;SDS011;10384;51.940;8.432;2023-03-03T13:50:52;28.13;;;7.93;;
20449;SDS011;10384;51.940;8.432;2023-03-03T13:53:41;27.87;;;7.97;;
20449;SDS011;10384;51.940;8.432;2023-03-03T13:59:08;27.40;;;8.03;;
20449;SDS011;10384;51.940;8.432;2023-03-03T14:01:54;31.33;;;8.87;;
20449;SDS011;10384;51.940;8.432;2023-03-03T14:06:54;31.53;;;9.03;;
20449;SDS011;10384;51.940;8.432;2023-03-03T14:12:03;29.33;;;8.23;;
20449;SDS011;10384;51.940;8.432;2023-03-03T14:17:01;28.53;;;6.93;;
20449;SDS011;10384;51.940;8.432;2023-03-03T14:35:33;23.10;;;6.67;;
20449;SDS011;10384;51.940;8.432;2023-03-03T14:38:16;19.53;;;5.77;;
20449;SDS011;10384;51.940;8.432;2023-03-03T14:40:43;24.93;;;6.67;;
20449;SDS011;10384;51.940;8.432;2023-03-03T14:45:55;22.40;;;7.17;;
20449;SDS011;10384;51.940;8.432;2023-03-03T14:48:24;21.57;;;6.90;;
20449;SDS011;10384;51.940;8.432;2023-03-03T14:50:52;19.93;;;6.47;;
20449;SDS011;10384;51.940;8.432;2023-03-03T14:55:51;22.00;;;6.80;;
20449;SDS011;10384;51.940;8.432;2023-03-03T15:00:49;26.43;;;7.60;;
20449;SDS011;10384;51.940;8.432;2023-03-03T15:03:56;20.47;;;7.13;;
20449;SDS011;10384;51.940;8.432;2023-03-03T15:06:11;21.43;;;6.03;;
20449;SDS011;10384;51.940;8.432;2023-03-03T15:08:37;18.80;;;6.50;;
20449;SDS011;10384;51.940;8.432;2023-03-03T15:13:42;25.77;;;7.40;;
20449;SDS011;10384;51.940;8.432;2023-03-03T15:16:18;22.27;;;7.07;;
20449;SDS011;10384;51.940;8.432;2023-03-03T15:18:52;20.47;;;6.40;;
20449;SDS011;10384;51.940;8.432;2023-03-03T15:21:21;15.73;;;5.70;;
20449;SDS011;10384;51.940;8.432;2023-03-03T15:24:02;21.60;;;6.67;;
20449;SDS011;10384;51.940;8.432;2023-03-03T15:36:56;28.00;;;7.77;;
20449;SDS011;10384;51.940;8.432;2023-03-03T15:41:53;26.00;;;8.07;;
20449;SDS011;10384;51.940;8.432;2023-03-03T15:49:43;21.20;;;6.70;;
20449;SDS011;10384;51.940;8.432;2023-03-03T15:53:02;24.07;;;7.60;;
20449;SDS011;10384;51.940;8.432;2023-03-03T16:02:56;28.60;;;8.63;;
20449;SDS011;10384;51.940;8.432;2023-03-03T16:05:33;26.87;;;7.93;;
20449;SDS011;10384;51.940;8.432;2023-03-03T16:08:14;26.80;;;8.20;;
20449;SDS011;10384;51.940;8.432;2023-03-03T16:10:56;32.63;;;8.77;;
20449;SDS011;10384;51.940;8.432;2023-03-03T16:31:44;31.50;;;10.00;;
20449;SDS011;10384;51.940;8.432;2023-03-03T16:34:14;28.13;;;9.30;;
20449;SDS011;10384;51.940;8.432;2023-03-03T16:36:55;33.10;;;8.70;;
20449;SDS011;10384;51.940;8.432;2023-03-03T16:39:26;31.83;;;9.37;;
20449;SDS011;10384;51.940;8.432;2023-03-03T16:47:18;32.83;;;9.73;;
20449;SDS011;10384;51.940;8.432;2023-03-03T16:52:16;31.77;;;9.80;;
20449;SDS011;10384;51.940;8.432;2023-03-03T16:54:46;26.70;;;8.80;;
20449;SDS011;10384;51.940;8.432;2023-03-03T16:57:32;23.60;;;8.33;;
20449;SDS011;10384;51.940;8.432;2023-03-03T17:02:31;28.10;;;8.60;;
20449;SDS011;10384;51.940;8.432;2023-03-03T17:05:01;28.87;;;9.60;;
20449;SDS011;10384;51.940;8.432;2023-03-03T17:18:11;28.50;;;9.30;;
20449;SDS011;10384;51.940;8.432;2023-03-03T17:20:43;36.03;;;10.50;;
20449;SDS011;10384;51.940;8.432;2023-03-03T17:23:30;31.33;;;9.27;;
20449;SDS011;10384;51.940;8.432;2023-03-03T17:28:50;30.23;;;10.30;;
20449;SDS011;10384;51.940;8.432;2023-03-03T17:41:53;30.13;;;10.10;;
20449;SDS011;10384;51.940;8.432;2023-03-03T17:46:50;37.10;;;10.70;;
20449;SDS011;10384;51.940;8.432;2023-03-03T17:57:20;38.00;;;10.30;;
20449;SDS011;10384;51.940;8.432;2023-03-03T17:59:53;26.47;;;8.93;;
20449;SDS011;10384;51.940;8.432;2023-03-03T18:12:49;29.53;;;9.53;;
20449;SDS011;10384;51.940;8.432;2023-03-03T18:15:19;32.63;;;9.70;;
20449;SDS011;10384;51.940;8.432;2023-03-03T18:23:19;27.50;;;9.73;;
20449;SDS011;10384;51.940;8.432;2023-03-03T18:25:52;32.83;;;10.37;;
20449;SDS011;10384;51.940;8.432;2023-03-03T18:28:20;33.73;;;10.60;;
20449;SDS011;10384;51.940;8.432;2023-03-03T18:33:12;27.47;;;9.37;;
20449;SDS011;10384;51.940;8.432;2023-03-03T18:35:39;29.43;;;9.83;;
20449;SDS011;10384;51.940;8.432;2023-03-03T18:40:48;31.67;;;9.77;;
20449;SDS011;10384;51.940;8.432;2023-03-03T18:45:59;28.03;;;10.40;;
20449;SDS011;10384;51.940;8.432;2023-03-03T18:54:00;38.53;;;11.30;;
20449;SDS011;10384;51.940;8.432;2023-03-03T19:00:07;32.40;;;10.80;;
20449;SDS011;10384;51.940;8.432;2023-03-03T19:02:24;33.67;;;10.80;;
20449;SDS011;10384;51.940;8.432;2023-03-03T19:04:47;33.63;;;9.97;;
20449;SDS011;10384;51.940;8.432;2023-03-03T19:09:54;27.97;;;10.87;;
20449;SDS011;10384;51.940;8.432;2023-03-03T19:15:07;29.03;;;10.50;;
20449;SDS011;10384;51.940;8.432;2023-03-03T19:17:52;30.60;;;11.23;;
20449;SDS011;10384;51.940;8.432;2023-03-03T19:20:18;34.17;;;10.60;;
20449;SDS011;10384;51.940;8.432;2023-03-03T19:22:48;30.63;;;10.77;;
20449;SDS011;10384;51.940;8.432;2023-03-03T19:25:17;33.77;;;11.63;;
20449;SDS011;10384;51.940;8.432;2023-03-03T19:27:50;30.07;;;11.13;;
20449;SDS011;10384;51.940;8.432;2023-03-03T19:30:31;30.50;;;10.73;;
20449;SDS011;10384;51.940;8.432;2023-03-03T19:38:20;31.80;;;10.90;;
20449;SDS011;10384;51.940;8.432;2023-03-03T19:40:50;33.37;;;11.33;;
20449;SDS011;10384;51.940;8.432;2023-03-03T20:01:56;30.13;;;10.67;;
20449;SDS011;10384;51.940;8.432;2023-03-03T20:04:29;37.70;;;11.47;;
20449;SDS011;10384;51.940;8.432;2023-03-03T20:07:03;35.43;;;12.00;;
20449;SDS011;10384;51.940;8.432;2023-03-03T20:14:47;38.67;;;13.97;;
20449;SDS011;10384;51.940;8.432;2023-03-03T20:22:22;32.53;;;11.90;;
20449;SDS011;10384;51.940;8.432;2023-03-03T20:30:05;36.80;;;12.50;;
20449;SDS011;10384;51.940;8.432;2023-03-03T20:53:35;33.23;;;11.13;;
20449;SDS011;10384;51.940;8.432;2023-03-03T21:01:11;33.53;;;12.03;;
20449;SDS011;10384;51.940;8.432;2023-03-03T21:03:40;38.17;;;11.83;;
20449;SDS011;10384;51.940;8.432;2023-03-03T21:06:14;32.70;;;11.03;;
20449;SDS011;10384;51.940;8.432;2023-03-03T21:08:46;33.57;;;12.13;;
20449;SDS011;10384;51.940;8.432;2023-03-03T21:11:14;31.80;;;10.53;;